Main page
METAR-TAF:

METAR-TAF

Airports :

Verona Villafranca Airport

Verona, Italy

latitude: 45-23N, longitude: 010-52E, elevation: 67 m

Current weather observation

The report was made 37 minutes ago, at 23:20 UTC
Wind 4 kt from the East/Northeast, varying between North/Northeast and East
Temperature 24°C
Humidity 69%
Pressure 1011 hPa
Visibility 10 km or more
Few clouds at a height of 4000 ft, Cumulonimbus.
Broken clouds at a height of 7000 ft
thunderstorm

METAR: LIPX 202320Z 07004KT 030V100 9999 TS FEW040CB BKN070 24/18 Q1011

Time: 01:57 (23:57 UTC)

Forecast

The report was made 3 hours and 57 minutes ago, at 20:00 UTC
Forecast valid from 20 at 21 UTC to 21 at 06 UTC
Wind 5 kt from variable directions
Visibility 10 km or more
Scattered clouds at a height of 4000 ft
Temporary
from 20 at 21 UTC to 21 at 03 UTC
thunderstorm, rain

TAF: LIPX 202000Z 2021/2106 VRB05KT 9999 SCT040 TEMPO 2021/2103 TSRA

Weather observations and forecasts of more than 4000 airports (METAR and TAF reports).

The available stations are represented by yellow and red dots on the map.

Hover mouse over dot to see the name of the station.

Then click to see weather observations and forecasts.

To change the map : click on the green buttons with a black cross to zoom in, on the green button with a dash to zoom out, or on the green arrows for adjacent maps.


METAR-TAF: